sensor_id;sensor_type;location;lat;lon;timestamp;P1;durP1;ratioP1;P2;durP2;ratioP2
7267;SDS011;3675;43.276;27.962;2022-08-05T00:01:37;4.15;;;3.85;;
7267;SDS011;3675;43.276;27.962;2022-08-05T00:04:05;4.50;;;4.20;;
7267;SDS011;3675;43.276;27.962;2022-08-05T00:06:31;4.15;;;3.90;;
7267;SDS011;3675;43.276;27.962;2022-08-05T00:08:56;5.13;;;4.60;;
7267;SDS011;3675;43.276;27.962;2022-08-05T00:11:22;3.70;;;3.50;;
7267;SDS011;3675;43.276;27.962;2022-08-05T00:13:47;4.65;;;4.25;;
7267;SDS011;3675;43.276;27.962;2022-08-05T00:16:13;4.82;;;4.43;;
7267;SDS011;3675;43.276;27.962;2022-08-05T00:18:40;4.75;;;4.35;;
7267;SDS011;3675;43.276;27.962;2022-08-05T00:21:08;4.88;;;4.38;;
7267;SDS011;3675;43.276;27.962;2022-08-05T00:23:34;5.13;;;4.53;;
7267;SDS011;3675;43.276;27.962;2022-08-05T00:26:00;4.57;;;4.18;;
7267;SDS011;3675;43.276;27.962;2022-08-05T00:28:26;4.30;;;4.10;;
7267;SDS011;3675;43.276;27.962;2022-08-05T00:30:58;6.00;;;4.97;;
7267;SDS011;3675;43.276;27.962;2022-08-05T00:33:24;8.68;;;4.75;;
7267;SDS011;3675;43.276;27.962;2022-08-05T00:35:49;4.93;;;4.63;;
7267;SDS011;3675;43.276;27.962;2022-08-05T00:38:15;4.90;;;4.45;;
7267;SDS011;3675;43.276;27.962;2022-08-05T00:40:51;6.53;;;3.85;;
7267;SDS011;3675;43.276;27.962;2022-08-05T00:43:19;4.55;;;4.20;;
7267;SDS011;3675;43.276;27.962;2022-08-05T00:45:45;7.43;;;4.57;;
7267;SDS011;3675;43.276;27.962;2022-08-05T00:48:16;4.65;;;4.25;;
7267;SDS011;3675;43.276;27.962;2022-08-05T00:50:45;5.03;;;4.68;;
7267;SDS011;3675;43.276;27.962;2022-08-05T00:53:12;4.57;;;4.18;;
7267;SDS011;3675;43.276;27.962;2022-08-05T00:55:40;4.70;;;4.30;;
7267;SDS011;3675;43.276;27.962;2022-08-05T00:58:12;4.45;;;4.05;;
7267;SDS011;3675;43.276;27.962;2022-08-05T01:00:40;4.30;;;4.07;;
7267;SDS011;3675;43.276;27.962;2022-08-05T01:03:06;4.43;;;4.18;;
7267;SDS011;3675;43.276;27.962;2022-08-05T01:05:32;4.43;;;4.13;;
7267;SDS011;3675;43.276;27.962;2022-08-05T01:07:57;3.92;;;3.70;;
7267;SDS011;3675;43.276;27.962;2022-08-05T01:10:26;4.53;;;4.30;;
7267;SDS011;3675;43.276;27.962;2022-08-05T01:12:54;4.28;;;4.00;;
7267;SDS011;3675;43.276;27.962;2022-08-05T01:15:28;5.30;;;4.28;;
7267;SDS011;3675;43.276;27.962;2022-08-05T01:18:00;5.35;;;4.65;;
7267;SDS011;3675;43.276;27.962;2022-08-05T01:22:57;4.50;;;4.10;;
7267;SDS011;3675;43.276;27.962;2022-08-05T01:28:31;4.32;;;4.10;;
7267;SDS011;3675;43.276;27.962;2022-08-05T01:31:08;4.57;;;4.28;;
7267;SDS011;3675;43.276;27.962;2022-08-05T01:33:53;4.60;;;4.20;;
7267;SDS011;3675;43.276;27.962;2022-08-05T01:36:33;4.07;;;3.85;;
7267;SDS011;3675;43.276;27.962;2022-08-05T01:39:01;4.18;;;3.90;;
7267;SDS011;3675;43.276;27.962;2022-08-05T01:41:28;4.22;;;3.88;;
7267;SDS011;3675;43.276;27.962;2022-08-05T01:43:55;4.05;;;3.85;;
7267;SDS011;3675;43.276;27.962;2022-08-05T01:46:21;4.53;;;4.10;;
7267;SDS011;3675;43.276;27.962;2022-08-05T01:48:47;4.05;;;3.78;;
7267;SDS011;3675;43.276;27.962;2022-08-05T01:51:13;4.03;;;3.72;;
7267;SDS011;3675;43.276;27.962;2022-08-05T01:53:41;4.25;;;3.92;;
7267;SDS011;3675;43.276;27.962;2022-08-05T01:56:08;3.80;;;3.38;;
7267;SDS011;3675;43.276;27.962;2022-08-05T01:58:36;4.30;;;4.03;;
7267;SDS011;3675;43.276;27.962;2022-08-05T02:01:02;3.72;;;3.42;;
7267;SDS011;3675;43.276;27.962;2022-08-05T02:03:33;3.75;;;3.55;;
7267;SDS011;3675;43.276;27.962;2022-08-05T02:06:02;4.30;;;3.90;;
7267;SDS011;3675;43.276;27.962;2022-08-05T02:08:29;4.00;;;3.70;;
7267;SDS011;3675;43.276;27.962;2022-08-05T02:10:58;4.45;;;4.15;;
7267;SDS011;3675;43.276;27.962;2022-08-05T02:13:28;4.40;;;4.10;;
7267;SDS011;3675;43.276;27.962;2022-08-05T02:16:00;5.60;;;3.90;;
7267;SDS011;3675;43.276;27.962;2022-08-05T02:18:41;3.95;;;3.53;;
7267;SDS011;3675;43.276;27.962;2022-08-05T02:21:17;3.85;;;3.65;;
7267;SDS011;3675;43.276;27.962;2022-08-05T02:23:45;4.57;;;4.18;;
7267;SDS011;3675;43.276;27.962;2022-08-05T02:26:14;3.38;;;3.17;;
7267;SDS011;3675;43.276;27.962;2022-08-05T02:28:43;3.50;;;3.30;;
7267;SDS011;3675;43.276;27.962;2022-08-05T02:31:11;4.07;;;3.55;;
7267;SDS011;3675;43.276;27.962;2022-08-05T02:33:52;3.95;;;3.72;;
7267;SDS011;3675;43.276;27.962;2022-08-05T02:36:24;3.67;;;3.47;;
7267;SDS011;3675;43.276;27.962;2022-08-05T02:38:51;4.18;;;3.85;;
7267;SDS011;3675;43.276;27.962;2022-08-05T02:41:18;3.50;;;3.13;;
7267;SDS011;3675;43.276;27.962;2022-08-05T02:43:45;3.63;;;3.42;;
7267;SDS011;3675;43.276;27.962;2022-08-05T02:46:17;4.10;;;3.63;;
7267;SDS011;3675;43.276;27.962;2022-08-05T02:48:49;5.00;;;3.45;;
7267;SDS011;3675;43.276;27.962;2022-08-05T02:51:15;4.25;;;4.00;;
7267;SDS011;3675;43.276;27.962;2022-08-05T02:53:41;3.55;;;3.30;;
7267;SDS011;3675;43.276;27.962;2022-08-05T02:56:13;3.72;;;3.53;;
7267;SDS011;3675;43.276;27.962;2022-08-05T02:58:39;3.92;;;3.67;;
7267;SDS011;3675;43.276;27.962;2022-08-05T03:01:05;4.13;;;3.92;;
7267;SDS011;3675;43.276;27.962;2022-08-05T03:03:34;3.83;;;3.63;;
7267;SDS011;3675;43.276;27.962;2022-08-05T03:06:08;4.50;;;4.20;;
7267;SDS011;3675;43.276;27.962;2022-08-05T03:08:35;3.90;;;3.63;;
7267;SDS011;3675;43.276;27.962;2022-08-05T03:11:02;4.30;;;4.03;;
7267;SDS011;3675;43.276;27.962;2022-08-05T03:13:28;4.00;;;3.60;;
7267;SDS011;3675;43.276;27.962;2022-08-05T03:15:54;5.32;;;3.72;;
7267;SDS011;3675;43.276;27.962;2022-08-05T03:18:21;3.85;;;3.55;;
7267;SDS011;3675;43.276;27.962;2022-08-05T03:21:03;4.05;;;3.75;;
7267;SDS011;3675;43.276;27.962;2022-08-05T03:23:51;4.80;;;4.35;;
7267;SDS011;3675;43.276;27.962;2022-08-05T03:26:37;4.15;;;3.95;;
7267;SDS011;3675;43.276;27.962;2022-08-05T03:29:08;4.57;;;4.28;;
7267;SDS011;3675;43.276;27.962;2022-08-05T03:31:34;4.95;;;4.38;;
7267;SDS011;3675;43.276;27.962;2022-08-05T03:34:00;4.07;;;3.78;;
7267;SDS011;3675;43.276;27.962;2022-08-05T03:36:31;5.15;;;4.75;;
7267;SDS011;3675;43.276;27.962;2022-08-05T03:39:04;5.07;;;4.10;;
7267;SDS011;3675;43.276;27.962;2022-08-05T03:41:37;4.22;;;3.92;;
7267;SDS011;3675;43.276;27.962;2022-08-05T03:44:03;3.97;;;3.67;;
7267;SDS011;3675;43.276;27.962;2022-08-05T03:46:29;4.22;;;3.90;;
7267;SDS011;3675;43.276;27.962;2022-08-05T03:49:04;4.43;;;4.13;;
7267;SDS011;3675;43.276;27.962;2022-08-05T03:51:43;3.38;;;3.15;;
7267;SDS011;3675;43.276;27.962;2022-08-05T03:56:58;3.70;;;3.50;;
7267;SDS011;3675;43.276;27.962;2022-08-05T03:59:36;3.92;;;3.67;;
7267;SDS011;3675;43.276;27.962;2022-08-05T04:02:12;4.25;;;3.83;;
7267;SDS011;3675;43.276;27.962;2022-08-05T04:04:43;3.55;;;3.35;;
7267;SDS011;3675;43.276;27.962;2022-08-05T04:07:13;4.70;;;3.75;;
7267;SDS011;3675;43.276;27.962;2022-08-05T04:09:46;3.58;;;3.35;;
7267;SDS011;3675;43.276;27.962;2022-08-05T04:12:15;4.35;;;3.95;;
7267;SDS011;3675;43.276;27.962;2022-08-05T04:14:50;4.00;;;3.70;;
7267;SDS011;3675;43.276;27.962;2022-08-05T04:17:20;4.38;;;3.95;;
7267;SDS011;3675;43.276;27.962;2022-08-05T04:19:47;4.35;;;3.95;;
7267;SDS011;3675;43.276;27.962;2022-08-05T04:22:21;4.68;;;4.30;;
7267;SDS011;3675;43.276;27.962;2022-08-05T04:24:53;3.78;;;3.58;;
7267;SDS011;3675;43.276;27.962;2022-08-05T04:27:28;3.97;;;3.72;;
7267;SDS011;3675;43.276;27.962;2022-08-05T04:29:55;4.72;;;4.32;;
7267;SDS011;3675;43.276;27.962;2022-08-05T04:32:21;3.72;;;3.40;;
7267;SDS011;3675;43.276;27.962;2022-08-05T04:34:47;3.85;;;3.65;;
7267;SDS011;3675;43.276;27.962;2022-08-05T04:37:12;4.32;;;3.90;;
7267;SDS011;3675;43.276;27.962;2022-08-05T04:39:38;3.40;;;3.20;;
7267;SDS011;3675;43.276;27.962;2022-08-05T04:42:04;3.88;;;3.58;;
7267;SDS011;3675;43.276;27.962;2022-08-05T04:44:30;3.72;;;3.53;;
7267;SDS011;3675;43.276;27.962;2022-08-05T04:46:59;3.55;;;3.35;;
7267;SDS011;3675;43.276;27.962;2022-08-05T04:49:26;3.45;;;3.15;;
7267;SDS011;3675;43.276;27.962;2022-08-05T04:51:54;4.40;;;4.00;;
7267;SDS011;3675;43.276;27.962;2022-08-05T04:54:20;3.72;;;3.45;;
7267;SDS011;3675;43.276;27.962;2022-08-05T04:56:46;3.60;;;3.40;;
7267;SDS011;3675;43.276;27.962;2022-08-05T04:59:15;4.75;;;3.85;;
7267;SDS011;3675;43.276;27.962;2022-08-05T05:01:41;5.50;;;3.42;;
7267;SDS011;3675;43.276;27.962;2022-08-05T05:04:09;3.85;;;3.53;;
7267;SDS011;3675;43.276;27.962;2022-08-05T05:06:35;4.05;;;3.53;;
7267;SDS011;3675;43.276;27.962;2022-08-05T05:09:04;3.97;;;3.67;;
7267;SDS011;3675;43.276;27.962;2022-08-05T05:11:29;3.58;;;3.38;;
7267;SDS011;3675;43.276;27.962;2022-08-05T05:13:55;4.10;;;3.70;;
7267;SDS011;3675;43.276;27.962;2022-08-05T05:16:20;4.10;;;3.65;;
7267;SDS011;3675;43.276;27.962;2022-08-05T05:18:46;4.07;;;3.78;;
7267;SDS011;3675;43.276;27.962;2022-08-05T05:21:12;4.38;;;4.03;;
7267;SDS011;3675;43.276;27.962;2022-08-05T05:23:38;3.67;;;3.47;;
7267;SDS011;3675;43.276;27.962;2022-08-05T05:26:10;4.63;;;4.32;;
7267;SDS011;3675;43.276;27.962;2022-08-05T05:28:35;4.32;;;4.03;;
7267;SDS011;3675;43.276;27.962;2022-08-05T05:31:01;4.28;;;3.88;;
7267;SDS011;3675;43.276;27.962;2022-08-05T05:33:26;3.80;;;3.50;;
7267;SDS011;3675;43.276;27.962;2022-08-05T05:35:52;3.95;;;3.63;;
7267;SDS011;3675;43.276;27.962;2022-08-05T05:38:20;3.97;;;3.78;;
7267;SDS011;3675;43.276;27.962;2022-08-05T05:40:46;4.10;;;3.80;;
7267;SDS011;3675;43.276;27.962;2022-08-05T05:43:17;3.35;;;3.15;;
7267;SDS011;3675;43.276;27.962;2022-08-05T05:45:43;3.90;;;3.60;;
7267;SDS011;3675;43.276;27.962;2022-08-05T05:48:09;3.67;;;3.45;;
7267;SDS011;3675;43.276;27.962;2022-08-05T05:50:35;4.07;;;3.80;;
7267;SDS011;3675;43.276;27.962;2022-08-05T05:53:15;3.28;;;2.97;;
7267;SDS011;3675;43.276;27.962;2022-08-05T05:55:41;3.30;;;3.08;;
7267;SDS011;3675;43.276;27.962;2022-08-05T05:58:14;3.72;;;3.38;;
7267;SDS011;3675;43.276;27.962;2022-08-05T06:00:42;3.13;;;2.85;;
7267;SDS011;3675;43.276;27.962;2022-08-05T06:03:08;4.03;;;3.63;;
7267;SDS011;3675;43.276;27.962;2022-08-05T06:05:33;3.58;;;3.28;;
7267;SDS011;3675;43.276;27.962;2022-08-05T06:07:59;4.35;;;4.00;;
7267;SDS011;3675;43.276;27.962;2022-08-05T06:10:32;4.63;;;4.22;;
7267;SDS011;3675;43.276;27.962;2022-08-05T06:12:58;4.60;;;4.20;;
7267;SDS011;3675;43.276;27.962;2022-08-05T06:15:24;4.03;;;3.83;;
7267;SDS011;3675;43.276;27.962;2022-08-05T06:17:49;4.03;;;3.80;;
7267;SDS011;3675;43.276;27.962;2022-08-05T06:20:15;5.55;;;3.70;;
7267;SDS011;3675;43.276;27.962;2022-08-05T06:22:41;8.40;;;3.75;;
7267;SDS011;3675;43.276;27.962;2022-08-05T06:25:07;3.70;;;3.47;;
7267;SDS011;3675;43.276;27.962;2022-08-05T06:27:33;4.18;;;3.50;;
7267;SDS011;3675;43.276;27.962;2022-08-05T06:30:00;3.90;;;3.70;;
7267;SDS011;3675;43.276;27.962;2022-08-05T06:32:26;3.80;;;3.60;;
7267;SDS011;3675;43.276;27.962;2022-08-05T06:34:51;3.85;;;3.55;;
7267;SDS011;3675;43.276;27.962;2022-08-05T06:37:18;4.65;;;4.18;;
7267;SDS011;3675;43.276;27.962;2022-08-05T06:39:44;3.05;;;2.88;;
7267;SDS011;3675;43.276;27.962;2022-08-05T06:42:09;3.47;;;3.25;;
7267;SDS011;3675;43.276;27.962;2022-08-05T06:44:35;3.75;;;3.55;;
7267;SDS011;3675;43.276;27.962;2022-08-05T06:47:00;3.05;;;2.95;;
7267;SDS011;3675;43.276;27.962;2022-08-05T06:49:26;3.17;;;3.08;;
7267;SDS011;3675;43.276;27.962;2022-08-05T06:51:51;3.42;;;3.22;;
7267;SDS011;3675;43.276;27.962;2022-08-05T06:54:17;3.33;;;3.03;;
7267;SDS011;3675;43.276;27.962;2022-08-05T06:56:43;3.78;;;3.25;;
7267;SDS011;3675;43.276;27.962;2022-08-05T06:59:09;3.92;;;3.72;;
7267;SDS011;3675;43.276;27.962;2022-08-05T07:01:38;4.32;;;3.20;;
7267;SDS011;3675;43.276;27.962;2022-08-05T07:04:04;3.03;;;2.83;;
7267;SDS011;3675;43.276;27.962;2022-08-05T07:06:30;3.20;;;3.00;;
7267;SDS011;3675;43.276;27.962;2022-08-05T07:08:59;3.67;;;3.38;;
7267;SDS011;3675;43.276;27.962;2022-08-05T07:11:25;3.63;;;3.38;;
7267;SDS011;3675;43.276;27.962;2022-08-05T07:13:52;3.13;;;2.72;;
7267;SDS011;3675;43.276;27.962;2022-08-05T07:16:37;2.95;;;2.85;;
7267;SDS011;3675;43.276;27.962;2022-08-05T07:19:15;3.47;;;3.17;;
7267;SDS011;3675;43.276;27.962;2022-08-05T07:21:45;4.68;;;3.03;;
7267;SDS011;3675;43.276;27.962;2022-08-05T07:24:17;3.35;;;3.15;;
7267;SDS011;3675;43.276;27.962;2022-08-05T07:26:43;3.28;;;2.88;;
7267;SDS011;3675;43.276;27.962;2022-08-05T07:29:12;2.97;;;2.80;;
7267;SDS011;3675;43.276;27.962;2022-08-05T07:31:39;3.13;;;3.00;;
7267;SDS011;3675;43.276;27.962;2022-08-05T07:34:08;4.50;;;2.70;;
7267;SDS011;3675;43.276;27.962;2022-08-05T07:36:34;3.05;;;2.75;;
7267;SDS011;3675;43.276;27.962;2022-08-05T07:39:02;3.22;;;3.03;;
7267;SDS011;3675;43.276;27.962;2022-08-05T07:41:29;3.25;;;3.05;;
7267;SDS011;3675;43.276;27.962;2022-08-05T07:43:58;7.85;;;3.25;;
7267;SDS011;3675;43.276;27.962;2022-08-05T07:46:25;4.10;;;2.97;;
7267;SDS011;3675;43.276;27.962;2022-08-05T07:48:57;2.60;;;2.50;;
7267;SDS011;3675;43.276;27.962;2022-08-05T07:51:23;4.38;;;2.90;;
7267;SDS011;3675;43.276;27.962;2022-08-05T07:53:51;3.15;;;3.00;;
7267;SDS011;3675;43.276;27.962;2022-08-05T07:56:17;2.90;;;2.70;;
7267;SDS011;3675;43.276;27.962;2022-08-05T07:58:42;3.15;;;2.80;;
7267;SDS011;3675;43.276;27.962;2022-08-05T08:01:08;5.55;;;2.92;;
7267;SDS011;3675;43.276;27.962;2022-08-05T08:03:34;2.88;;;2.65;;
7267;SDS011;3675;43.276;27.962;2022-08-05T08:05:59;2.28;;;2.17;;
7267;SDS011;3675;43.276;27.962;2022-08-05T08:08:25;2.40;;;2.30;;
7267;SDS011;3675;43.276;27.962;2022-08-05T08:10:53;4.15;;;2.92;;
7267;SDS011;3675;43.276;27.962;2022-08-05T08:13:20;2.50;;;2.30;;
7267;SDS011;3675;43.276;27.962;2022-08-05T08:15:46;2.28;;;2.17;;
7267;SDS011;3675;43.276;27.962;2022-08-05T08:18:12;2.47;;;2.38;;
7267;SDS011;3675;43.276;27.962;2022-08-05T08:20:37;2.03;;;1.92;;
7267;SDS011;3675;43.276;27.962;2022-08-05T08:23:03;2.45;;;2.35;;
7267;SDS011;3675;43.276;27.962;2022-08-05T08:25:29;2.47;;;2.38;;
7267;SDS011;3675;43.276;27.962;2022-08-05T08:27:55;2.55;;;1.98;;
7267;SDS011;3675;43.276;27.962;2022-08-05T08:30:20;2.78;;;2.58;;
7267;SDS011;3675;43.276;27.962;2022-08-05T08:32:46;2.95;;;2.67;;
7267;SDS011;3675;43.276;27.962;2022-08-05T08:35:12;2.15;;;2.00;;
7267;SDS011;3675;43.276;27.962;2022-08-05T08:37:37;2.53;;;2.40;;
7267;SDS011;3675;43.276;27.962;2022-08-05T08:40:03;3.45;;;2.47;;
7267;SDS011;3675;43.276;27.962;2022-08-05T08:42:29;2.35;;;2.22;;
7267;SDS011;3675;43.276;27.962;2022-08-05T08:44:55;2.08;;;2.08;;
7267;SDS011;3675;43.276;27.962;2022-08-05T08:47:25;2.17;;;2.03;;
7267;SDS011;3675;43.276;27.962;2022-08-05T08:49:53;2.33;;;2.22;;
7267;SDS011;3675;43.276;27.962;2022-08-05T08:52:29;2.35;;;2.25;;
7267;SDS011;3675;43.276;27.962;2022-08-05T08:54:57;2.50;;;2.40;;
7267;SDS011;3675;43.276;27.962;2022-08-05T08:57:23;2.40;;;2.20;;
7267;SDS011;3675;43.276;27.962;2022-08-05T08:59:49;2.40;;;2.30;;
7267;SDS011;3675;43.276;27.962;2022-08-05T09:02:15;2.47;;;2.38;;
7267;SDS011;3675;43.276;27.962;2022-08-05T09:04:42;2.45;;;2.35;;
7267;SDS011;3675;43.276;27.962;2022-08-05T09:07:11;2.50;;;2.40;;
7267;SDS011;3675;43.276;27.962;2022-08-05T09:09:37;2.65;;;2.55;;
7267;SDS011;3675;43.276;27.962;2022-08-05T09:12:03;5.43;;;3.30;;
7267;SDS011;3675;43.276;27.962;2022-08-05T09:14:30;3.00;;;2.80;;
7267;SDS011;3675;43.276;27.962;2022-08-05T09:16:57;5.28;;;3.72;;
7267;SDS011;3675;43.276;27.962;2022-08-05T09:19:24;2.75;;;2.65;;
7267;SDS011;3675;43.276;27.962;2022-08-05T09:21:49;2.47;;;2.38;;
7267;SDS011;3675;43.276;27.962;2022-08-05T09:24:15;2.42;;;2.25;;
7267;SDS011;3675;43.276;27.962;2022-08-05T09:26:41;3.15;;;2.28;;
7267;SDS011;3675;43.276;27.962;2022-08-05T09:29:13;2.33;;;2.22;;
7267;SDS011;3675;43.276;27.962;2022-08-05T09:31:38;3.00;;;2.72;;
7267;SDS011;3675;43.276;27.962;2022-08-05T09:34:08;4.13;;;2.55;;
7267;SDS011;3675;43.276;27.962;2022-08-05T09:39:03;2.65;;;2.45;;
7267;SDS011;3675;43.276;27.962;2022-08-05T09:41:30;2.42;;;2.33;;
7267;SDS011;3675;43.276;27.962;2022-08-05T09:43:56;2.55;;;2.15;;
7267;SDS011;3675;43.276;27.962;2022-08-05T09:46:23;2.40;;;2.30;;
7267;SDS011;3675;43.276;27.962;2022-08-05T09:48:50;2.55;;;2.42;;
7267;SDS011;3675;43.276;27.962;2022-08-05T09:51:27;2.67;;;2.50;;
7267;SDS011;3675;43.276;27.962;2022-08-05T09:53:55;2.30;;;2.20;;
7267;SDS011;3675;43.276;27.962;2022-08-05T09:56:25;2.15;;;2.05;;
7267;SDS011;3675;43.276;27.962;2022-08-05T09:59:09;3.17;;;3.00;;
7267;SDS011;3675;43.276;27.962;2022-08-05T10:01:40;3.80;;;3.50;;
7267;SDS011;3675;43.276;27.962;2022-08-05T10:04:12;2.75;;;2.65;;
7267;SDS011;3675;43.276;27.962;2022-08-05T10:06:48;3.55;;;3.25;;
7267;SDS011;3675;43.276;27.962;2022-08-05T10:09:24;2.38;;;2.28;;
7267;SDS011;3675;43.276;27.962;2022-08-05T10:11:49;2.47;;;2.33;;
7267;SDS011;3675;43.276;27.962;2022-08-05T10:14:22;3.50;;;3.25;;
7267;SDS011;3675;43.276;27.962;2022-08-05T10:16:50;3.35;;;3.10;;
7267;SDS011;3675;43.276;27.962;2022-08-05T10:19:16;3.50;;;3.22;;
7267;SDS011;3675;43.276;27.962;2022-08-05T10:21:43;4.22;;;3.33;;
7267;SDS011;3675;43.276;27.962;2022-08-05T10:24:10;3.15;;;3.05;;
7267;SDS011;3675;43.276;27.962;2022-08-05T10:26:40;3.38;;;3.17;;
7267;SDS011;3675;43.276;27.962;2022-08-05T10:29:07;2.78;;;2.67;;
7267;SDS011;3675;43.276;27.962;2022-08-05T10:31:33;3.65;;;3.40;;
7267;SDS011;3675;43.276;27.962;2022-08-05T10:33:59;3.90;;;3.60;;
7267;SDS011;3675;43.276;27.962;2022-08-05T10:36:25;5.25;;;3.13;;
7267;SDS011;3675;43.276;27.962;2022-08-05T10:38:51;3.88;;;3.28;;
7267;SDS011;3675;43.276;27.962;2022-08-05T10:44:29;3.40;;;3.20;;
7267;SDS011;3675;43.276;27.962;2022-08-05T10:46:56;3.28;;;3.17;;
7267;SDS011;3675;43.276;27.962;2022-08-05T10:49:23;3.30;;;3.10;;
7267;SDS011;3675;43.276;27.962;2022-08-05T10:51:54;4.28;;;3.75;;
7267;SDS011;3675;43.276;27.962;2022-08-05T10:54:24;3.53;;;3.33;;
7267;SDS011;3675;43.276;27.962;2022-08-05T10:57:11;3.85;;;3.20;;
7267;SDS011;3675;43.276;27.962;2022-08-05T10:59:37;12.77;;;3.63;;
7267;SDS011;3675;43.276;27.962;2022-08-05T11:02:10;3.58;;;3.28;;
7267;SDS011;3675;43.276;27.962;2022-08-05T11:07:09;3.15;;;2.97;;
7267;SDS011;3675;43.276;27.962;2022-08-05T11:09:49;5.18;;;3.90;;
7267;SDS011;3675;43.276;27.962;2022-08-05T11:13:02;3.70;;;3.45;;
7267;SDS011;3675;43.276;27.962;2022-08-05T11:15:06;3.40;;;3.20;;
7267;SDS011;3675;43.276;27.962;2022-08-05T11:17:37;3.25;;;3.15;;
7267;SDS011;3675;43.276;27.962;2022-08-05T11:20:06;3.40;;;3.20;;
7267;SDS011;3675;43.276;27.962;2022-08-05T11:22:52;4.50;;;3.45;;
7267;SDS011;3675;43.276;27.962;2022-08-05T11:33:33;3.13;;;2.92;;
7267;SDS011;3675;43.276;27.962;2022-08-05T11:43:41;2.63;;;2.53;;
7267;SDS011;3675;43.276;27.962;2022-08-05T11:46:08;3.70;;;3.50;;
7267;SDS011;3675;43.276;27.962;2022-08-05T11:48:34;3.35;;;3.20;;
7267;SDS011;3675;43.276;27.962;2022-08-05T11:51:00;3.63;;;3.42;;
7267;SDS011;3675;43.276;27.962;2022-08-05T11:53:26;3.35;;;3.15;;
7267;SDS011;3675;43.276;27.962;2022-08-05T11:55:57;5.60;;;5.10;;
7267;SDS011;3675;43.276;27.962;2022-08-05T11:58:30;3.40;;;3.10;;
7267;SDS011;3675;43.276;27.962;2022-08-05T12:03:28;5.45;;;3.03;;
7267;SDS011;3675;43.276;27.962;2022-08-05T12:05:56;3.47;;;3.28;;
7267;SDS011;3675;43.276;27.962;2022-08-05T12:08:23;3.25;;;3.05;;
7267;SDS011;3675;43.276;27.962;2022-08-05T12:10:48;2.63;;;2.53;;
7267;SDS011;3675;43.276;27.962;2022-08-05T12:13:15;4.28;;;2.80;;
7267;SDS011;3675;43.276;27.962;2022-08-05T12:15:44;2.67;;;2.58;;
7267;SDS011;3675;43.276;27.962;2022-08-05T12:18:10;2.88;;;2.72;;
7267;SDS011;3675;43.276;27.962;2022-08-05T12:20:41;6.88;;;3.60;;
7267;SDS011;3675;43.276;27.962;2022-08-05T12:23:10;2.95;;;2.78;;
7267;SDS011;3675;43.276;27.962;2022-08-05T12:25:49;3.28;;;3.08;;
7267;SDS011;3675;43.276;27.962;2022-08-05T12:31:14;2.95;;;2.80;;
7267;SDS011;3675;43.276;27.962;2022-08-05T12:33:41;3.53;;;3.28;;
7267;SDS011;3675;43.276;27.962;2022-08-05T12:36:08;2.83;;;2.72;;
7267;SDS011;3675;43.276;27.962;2022-08-05T12:38:35;3.47;;;3.28;;
7267;SDS011;3675;43.276;27.962;2022-08-05T12:41:01;3.30;;;3.10;;
7267;SDS011;3675;43.276;27.962;2022-08-05T12:43:27;3.28;;;3.08;;
7267;SDS011;3675;43.276;27.962;2022-08-05T12:45:53;3.35;;;3.08;;
7267;SDS011;3675;43.276;27.962;2022-08-05T12:48:20;2.78;;;2.63;;
7267;SDS011;3675;43.276;27.962;2022-08-05T12:53:43;2.90;;;2.53;;
7267;SDS011;3675;43.276;27.962;2022-08-05T12:56:22;2.70;;;2.60;;
7267;SDS011;3675;43.276;27.962;2022-08-05T13:01:41;3.05;;;2.70;;
7267;SDS011;3675;43.276;27.962;2022-08-05T13:04:08;2.38;;;2.28;;
7267;SDS011;3675;43.276;27.962;2022-08-05T13:06:41;2.53;;;2.42;;
7267;SDS011;3675;43.276;27.962;2022-08-05T13:09:10;2.80;;;2.63;;
7267;SDS011;3675;43.276;27.962;2022-08-05T13:11:40;2.78;;;2.63;;
7267;SDS011;3675;43.276;27.962;2022-08-05T13:14:13;2.40;;;2.30;;
7267;SDS011;3675;43.276;27.962;2022-08-05T13:16:50;3.05;;;2.85;;
7267;SDS011;3675;43.276;27.962;2022-08-05T13:19:21;2.85;;;2.70;;
7267;SDS011;3675;43.276;27.962;2022-08-05T13:21:51;3.50;;;3.30;;
7267;SDS011;3675;43.276;27.962;2022-08-05T13:24:17;2.88;;;2.70;;
7267;SDS011;3675;43.276;27.962;2022-08-05T13:26:45;3.15;;;2.95;;
7267;SDS011;3675;43.276;27.962;2022-08-05T13:29:11;3.22;;;3.00;;
7267;SDS011;3675;43.276;27.962;2022-08-05T13:31:37;4.28;;;2.72;;
7267;SDS011;3675;43.276;27.962;2022-08-05T13:34:03;2.45;;;2.35;;
7267;SDS011;3675;43.276;27.962;2022-08-05T13:36:28;7.80;;;4.60;;
7267;SDS011;3675;43.276;27.962;2022-08-05T13:38:54;3.15;;;2.95;;
7267;SDS011;3675;43.276;27.962;2022-08-05T13:41:19;10.40;;;8.70;;
7267;SDS011;3675;43.276;27.962;2022-08-05T13:43:45;4.18;;;3.03;;
7267;SDS011;3675;43.276;27.962;2022-08-05T13:46:11;3.70;;;3.40;;
7267;SDS011;3675;43.276;27.962;2022-08-05T13:48:37;3.17;;;3.08;;
7267;SDS011;3675;43.276;27.962;2022-08-05T13:51:06;5.35;;;3.50;;
7267;SDS011;3675;43.276;27.962;2022-08-05T13:53:32;3.05;;;2.83;;
7267;SDS011;3675;43.276;27.962;2022-08-05T13:55:59;3.30;;;3.10;;
7267;SDS011;3675;43.276;27.962;2022-08-05T13:58:26;3.33;;;2.80;;
7267;SDS011;3675;43.276;27.962;2022-08-05T14:00:52;3.10;;;2.90;;
7267;SDS011;3675;43.276;27.962;2022-08-05T14:03:17;2.90;;;2.80;;
7267;SDS011;3675;43.276;27.962;2022-08-05T14:05:43;3.60;;;3.38;;
7267;SDS011;3675;43.276;27.962;2022-08-05T14:08:08;3.08;;;2.88;;
7267;SDS011;3675;43.276;27.962;2022-08-05T14:10:34;2.90;;;2.70;;
7267;SDS011;3675;43.276;27.962;2022-08-05T14:12:59;3.42;;;3.13;;
7267;SDS011;3675;43.276;27.962;2022-08-05T14:15:26;3.88;;;3.58;;
7267;SDS011;3675;43.276;27.962;2022-08-05T14:17:52;2.95;;;2.28;;
7267;SDS011;3675;43.276;27.962;2022-08-05T14:20:17;3.63;;;3.15;;
7267;SDS011;3675;43.276;27.962;2022-08-05T14:22:43;3.30;;;3.20;;
7267;SDS011;3675;43.276;27.962;2022-08-05T14:25:09;4.40;;;3.28;;
7267;SDS011;3675;43.276;27.962;2022-08-05T14:27:35;2.50;;;2.40;;
7267;SDS011;3675;43.276;27.962;2022-08-05T14:30:01;2.88;;;2.70;;
7267;SDS011;3675;43.276;27.962;2022-08-05T14:32:27;3.30;;;3.10;;
7267;SDS011;3675;43.276;27.962;2022-08-05T14:34:55;4.10;;;2.97;;
7267;SDS011;3675;43.276;27.962;2022-08-05T14:37:20;3.30;;;3.10;;
7267;SDS011;3675;43.276;27.962;2022-08-05T14:39:46;3.20;;;3.03;;
7267;SDS011;3675;43.276;27.962;2022-08-05T14:42:12;3.05;;;2.85;;
7267;SDS011;3675;43.276;27.962;2022-08-05T14:44:38;2.75;;;2.65;;
7267;SDS011;3675;43.276;27.962;2022-08-05T14:47:03;5.90;;;3.00;;
7267;SDS011;3675;43.276;27.962;2022-08-05T14:49:29;5.65;;;2.50;;
7267;SDS011;3675;43.276;27.962;2022-08-05T14:51:55;2.75;;;2.65;;
7267;SDS011;3675;43.276;27.962;2022-08-05T14:54:20;3.00;;;2.83;;
7267;SDS011;3675;43.276;27.962;2022-08-05T14:56:46;3.00;;;2.78;;
7267;SDS011;3675;43.276;27.962;2022-08-05T14:59:12;4.47;;;2.92;;
7267;SDS011;3675;43.276;27.962;2022-08-05T15:01:38;4.50;;;2.88;;
7267;SDS011;3675;43.276;27.962;2022-08-05T15:04:05;2.65;;;2.55;;
7267;SDS011;3675;43.276;27.962;2022-08-05T15:06:34;2.78;;;2.67;;
7267;SDS011;3675;43.276;27.962;2022-08-05T15:09:00;3.28;;;2.97;;
7267;SDS011;3675;43.276;27.962;2022-08-05T15:11:25;3.15;;;2.90;;
7267;SDS011;3675;43.276;27.962;2022-08-05T15:13:52;3.17;;;2.92;;
7267;SDS011;3675;43.276;27.962;2022-08-05T15:16:17;3.28;;;3.05;;
7267;SDS011;3675;43.276;27.962;2022-08-05T15:18:43;3.60;;;3.30;;
7267;SDS011;3675;43.276;27.962;2022-08-05T15:21:09;2.92;;;2.75;;
7267;SDS011;3675;43.276;27.962;2022-08-05T15:23:34;3.15;;;2.95;;
7267;SDS011;3675;43.276;27.962;2022-08-05T15:26:00;3.17;;;2.97;;
7267;SDS011;3675;43.276;27.962;2022-08-05T15:28:25;2.85;;;2.65;;
7267;SDS011;3675;43.276;27.962;2022-08-05T15:30:51;2.90;;;2.70;;
7267;SDS011;3675;43.276;27.962;2022-08-05T15:33:16;4.03;;;3.30;;
7267;SDS011;3675;43.276;27.962;2022-08-05T15:35:42;3.17;;;3.03;;
7267;SDS011;3675;43.276;27.962;2022-08-05T15:38:07;3.40;;;3.20;;
7267;SDS011;3675;43.276;27.962;2022-08-05T15:40:32;2.45;;;2.35;;
7267;SDS011;3675;43.276;27.962;2022-08-05T15:42:58;2.83;;;2.72;;
7267;SDS011;3675;43.276;27.962;2022-08-05T15:45:24;3.22;;;2.97;;
7267;SDS011;3675;43.276;27.962;2022-08-05T15:47:53;3.03;;;2.88;;
7267;SDS011;3675;43.276;27.962;2022-08-05T15:50:18;2.72;;;2.63;;